createdAt,value
2018-04-23T00:00:31.188Z,19.10
2018-04-23T00:03:00.611Z,19.10
2018-04-23T00:05:28.851Z,19.20
2018-04-23T00:07:57.087Z,19.30
2018-04-23T00:10:26.907Z,19.30
2018-04-23T00:12:55.147Z,19.20
2018-04-23T00:15:23.415Z,19.20
2018-04-23T00:17:53.211Z,19.10
2018-04-23T00:20:21.447Z,19.20
2018-04-23T00:22:51.191Z,19.20
2018-04-23T00:25:20.244Z,19.10
2018-04-23T00:27:48.483Z,19.10
2018-04-23T00:30:18.235Z,19.10
2018-04-23T00:32:46.515Z,19.10
2018-04-23T00:35:14.755Z,19.10
2018-04-23T00:40:12.527Z,19.10
2018-04-23T00:42:40.759Z,19.00
2018-04-23T00:45:09.006Z,19.00
2018-04-23T00:47:37.299Z,18.90
2018-04-23T00:50:06.664Z,18.80
2018-04-23T00:52:34.904Z,18.90
2018-04-23T00:55:04.127Z,18.90
2018-04-23T00:57:32.368Z,18.80
2018-04-23T01:00:01.044Z,18.70
2018-04-23T01:02:29.511Z,18.70
2018-04-23T01:04:57.755Z,18.70
2018-04-23T01:07:27.177Z,18.70
2018-04-23T01:09:55.419Z,18.60
2018-04-23T01:12:23.647Z,18.60
2018-04-23T01:14:51.915Z,18.60
2018-04-23T01:17:20.552Z,18.60
2018-04-23T01:19:48.826Z,18.50
2018-04-23T01:22:17.864Z,18.60
2018-04-23T01:24:49.096Z,18.60
2018-04-23T01:29:47.232Z,18.50
2018-04-23T01:34:45.186Z,18.40
2018-04-23T01:37:13.432Z,18.40
2018-04-23T01:39:41.699Z,18.40
2018-04-23T01:42:10.700Z,18.40
2018-04-23T01:44:38.972Z,18.30
2018-04-23T01:47:07.216Z,18.30
2018-04-23T01:49:35.484Z,18.30
2018-04-23T01:52:05.227Z,18.20
2018-04-23T01:54:34.239Z,18.20
2018-04-23T01:57:02.527Z,18.20
2018-04-23T01:59:32.279Z,18.20
2018-04-23T02:02:01.659Z,18.20
2018-04-23T02:07:06.147Z,18.20
2018-04-23T02:09:34.437Z,18.20
2018-04-23T02:12:03.073Z,18.10
2018-04-23T02:14:31.363Z,18.10
2018-04-23T02:17:00.372Z,18.10
2018-04-23T02:19:28.607Z,18.20
2018-04-23T02:21:56.875Z,18.20
2018-04-23T02:24:25.124Z,18.20
2018-04-23T02:26:53.409Z,18.20
2018-04-23T02:29:21.639Z,18.20
2018-04-23T02:31:51.015Z,18.20
2018-04-23T02:34:19.305Z,18.20
2018-04-23T02:36:47.556Z,18.30
2018-04-23T02:39:15.788Z,18.30
2018-04-23T02:41:44.068Z,18.30
2018-04-23T02:44:13.819Z,18.30
2018-04-23T02:49:12.690Z,18.30
2018-04-23T02:51:42.064Z,18.30
2018-04-23T02:54:10.311Z,18.30
2018-04-23T02:56:38.571Z,18.30
2018-04-23T02:59:06.811Z,18.30
2018-04-23T03:01:35.099Z,18.30
2018-04-23T03:04:04.471Z,18.30
2018-04-23T03:06:32.711Z,18.30
2018-04-23T03:09:00.983Z,18.30
2018-04-23T03:11:29.219Z,18.30
2018-04-23T03:13:57.499Z,18.30
2018-04-23T03:16:25.744Z,18.30
2018-04-23T03:21:23.468Z,18.20
2018-04-23T03:26:21.610Z,18.20
2018-04-23T03:28:50.677Z,18.20
2018-04-23T03:31:19.675Z,18.20
2018-04-23T03:33:47.954Z,18.10
2018-04-23T03:36:16.958Z,18.10
2018-04-23T03:38:46.363Z,18.10
2018-04-23T03:41:14.639Z,18.00
2018-04-23T03:43:42.879Z,18.00
2018-04-23T03:46:11.164Z,18.00
2018-04-23T03:48:39.399Z,18.00
2018-04-23T03:51:08.767Z,17.90
2018-04-23T03:53:37.246Z,17.90
2018-04-23T03:56:06.990Z,17.90
2018-04-23T03:58:35.219Z,17.80
2018-04-23T04:01:03.490Z,17.80
2018-04-23T04:03:31.731Z,17.80
2018-04-23T04:05:59.971Z,17.80
2018-04-23T04:08:29.375Z,17.80
2018-04-23T04:10:57.611Z,17.80
2018-04-23T04:16:13.603Z,17.70
2018-04-23T04:18:45.685Z,17.70
2018-04-23T04:21:13.907Z,17.70
2018-04-23T04:23:42.142Z,17.70
2018-04-23T04:26:10.399Z,17.60
2018-04-23T04:28:40.303Z,17.60
2018-04-23T04:31:09.528Z,17.60
2018-04-23T04:33:38.539Z,17.60
2018-04-23T04:36:07.535Z,17.60
2018-04-23T04:38:35.846Z,17.60
2018-04-23T04:41:04.847Z,17.50
2018-04-23T04:43:33.078Z,17.50
2018-04-23T04:46:01.355Z,17.50
2018-04-23T04:48:29.586Z,17.50
2018-04-23T04:50:59.335Z,17.50
2018-04-23T04:53:27.987Z,17.40
2018-04-23T04:55:56.619Z,17.50
2018-04-23T04:58:26.403Z,17.40
2018-04-23T05:00:54.645Z,17.40
2018-04-23T05:03:22.878Z,17.40
2018-04-23T05:05:52.690Z,17.50
2018-04-23T05:08:20.922Z,17.50
2018-04-23T05:10:50.291Z,17.40
2018-04-23T05:15:48.419Z,17.50
2018-04-23T05:18:16.655Z,17.50
2018-04-23T05:20:44.939Z,17.50
2018-04-23T05:23:13.170Z,17.60
2018-04-23T05:25:42.916Z,17.60
2018-04-23T05:28:11.183Z,17.60
2018-04-23T05:30:39.427Z,17.70
2018-04-23T05:33:09.167Z,17.70
2018-04-23T05:35:38.207Z,17.70
2018-04-23T05:38:06.451Z,17.70
2018-04-23T05:40:35.451Z,17.70
2018-04-23T05:43:04.244Z,17.80
2018-04-23T05:45:32.477Z,17.70
2018-04-23T05:48:00.709Z,17.70
2018-04-23T05:50:28.970Z,17.70
2018-04-23T05:52:58.029Z,17.70
2018-04-23T05:55:26.263Z,17.70
2018-04-23T05:57:55.699Z,17.70
2018-04-23T06:00:25.547Z,17.70
2018-04-23T06:02:54.548Z,17.70
2018-04-23T06:05:22.784Z,17.70
2018-04-23T06:07:51.059Z,17.70
2018-04-23T06:10:19.299Z,17.70
2018-04-23T06:12:47.535Z,17.80
2018-04-23T06:15:17.329Z,17.80
2018-04-23T06:17:45.568Z,17.80
2018-04-23T06:20:15.316Z,17.70
2018-04-23T06:22:44.471Z,17.70
2018-04-23T06:25:13.481Z,17.60
2018-04-23T06:27:41.714Z,17.60
2018-04-23T06:30:09.995Z,17.60
2018-04-23T06:32:38.226Z,17.70
2018-04-23T06:35:06.458Z,17.80
2018-04-23T06:37:36.240Z,17.80
2018-04-23T06:40:04.475Z,17.80
2018-04-23T06:42:32.719Z,17.80
2018-04-23T06:45:01.397Z,17.80
2018-04-23T06:47:31.527Z,17.70
2018-04-23T06:49:59.763Z,17.70
2018-04-23T06:52:28.831Z,17.70
2018-04-23T06:54:57.069Z,17.80
2018-04-23T06:57:26.071Z,17.70
2018-04-23T06:59:55.866Z,17.70
2018-04-23T07:02:24.172Z,17.70
2018-04-23T07:04:52.453Z,17.70
2018-04-23T07:07:21.447Z,17.70
2018-04-23T07:09:50.443Z,17.70
2018-04-23T07:12:18.719Z,17.70
2018-04-23T07:14:47.749Z,17.80
2018-04-23T07:17:15.983Z,18.00
2018-04-23T07:19:45.023Z,18.20
2018-04-23T07:24:42.723Z,18.60
2018-04-23T07:27:10.999Z,18.70
2018-04-23T07:29:39.230Z,18.80
2018-04-23T07:32:08.605Z,18.90
2018-04-23T07:34:36.879Z,19.00
2018-04-23T07:37:05.875Z,19.10
2018-04-23T07:39:34.880Z,19.10
2018-04-23T07:42:03.155Z,19.10
2018-04-23T07:44:31.399Z,19.30
2018-04-23T07:49:29.543Z,19.50
2018-04-23T07:51:58.535Z,19.70
2018-04-23T07:54:27.540Z,19.80
2018-04-23T07:56:55.844Z,20.00
2018-04-23T07:59:24.076Z,20.10
2018-04-23T08:01:52.307Z,20.20
2018-04-23T08:04:20.976Z,20.40
2018-04-23T08:06:50.730Z,20.60
2018-04-23T08:09:18.946Z,20.80
2018-04-23T08:14:18.311Z,20.90
2018-04-23T08:16:46.938Z,21.00
2018-04-23T08:19:15.203Z,21.10
2018-04-23T08:21:43.431Z,21.20
2018-04-23T08:24:11.659Z,21.30
2018-04-23T08:26:39.938Z,21.40
2018-04-23T08:29:08.166Z,21.40
2018-04-23T08:31:37.164Z,21.60
2018-04-23T08:34:05.422Z,21.60
2018-04-23T08:36:33.648Z,21.70
2018-04-23T08:39:04.217Z,21.70
2018-04-23T08:41:32.883Z,21.80
2018-04-23T08:44:02.624Z,21.90
2018-04-23T08:46:30.847Z,22.00
2018-04-23T08:49:00.295Z,22.10
2018-04-23T08:51:28.483Z,22.20
2018-04-23T08:53:58.223Z,22.30
2018-04-23T08:56:26.499Z,22.40
2018-04-23T08:58:54.727Z,22.50
2018-04-23T09:01:22.956Z,22.70
2018-04-23T09:03:51.227Z,23.10
2018-04-23T09:06:19.496Z,23.60
2018-04-23T09:08:47.727Z,24.40
2018-04-23T09:11:16.235Z,25.50
2018-04-23T09:13:45.978Z,26.80
2018-04-23T09:18:43.695Z,29.80
2018-04-23T09:21:13.435Z,30.50
2018-04-23T09:23:42.060Z,30.80
2018-04-23T09:26:10.338Z,31.10
2018-04-23T09:28:39.704Z,31.60
2018-04-23T09:33:38.942Z,33.00
2018-04-23T09:38:36.619Z,33.70
2018-04-23T09:41:04.886Z,34.10
2018-04-23T09:43:33.114Z,34.20
2018-04-23T09:46:01.336Z,34.10
2018-04-23T09:48:29.603Z,34.00
2018-04-23T09:50:57.827Z,33.80
2018-04-23T09:53:26.820Z,33.40
2018-04-23T09:55:55.249Z,32.90
2018-04-23T09:58:23.471Z,32.60
2018-04-23T10:00:51.707Z,32.50
2018-04-23T10:03:19.976Z,32.40
2018-04-23T10:05:48.592Z,31.80
2018-04-23T10:08:17.609Z,31.00
2018-04-23T10:10:45.871Z,30.70
2018-04-23T10:13:14.100Z,30.10
2018-04-23T10:15:42.327Z,29.60
2018-04-23T10:18:10.992Z,29.00
2018-04-23T10:20:39.220Z,28.70
2018-04-23T10:23:08.963Z,28.50
2018-04-23T10:25:38.364Z,27.90
2018-04-23T10:28:06.591Z,27.30
2018-04-23T10:30:35.588Z,26.90
2018-04-23T10:33:03.855Z,26.80
2018-04-23T10:35:32.859Z,26.60
2018-04-23T10:38:01.111Z,26.20
2018-04-23T10:40:29.371Z,25.90
2018-04-23T10:42:57.600Z,25.80
2018-04-23T10:45:25.893Z,25.80
2018-04-23T10:47:54.139Z,25.70
2018-04-23T10:50:22.364Z,25.60
2018-04-23T10:52:50.622Z,25.60
2018-04-23T10:55:20.351Z,25.80
2018-04-23T10:57:48.575Z,25.80
2018-04-23T11:00:16.851Z,25.70
2018-04-23T11:02:45.126Z,25.60
2018-04-23T11:05:14.082Z,25.40
2018-04-23T11:07:42.351Z,25.30
2018-04-23T11:10:11.580Z,25.30
2018-04-23T11:12:40.578Z,25.30
2018-04-23T11:15:08.854Z,25.20
2018-04-23T11:17:38.591Z,25.00
2018-04-23T11:22:37.084Z,25.10
2018-04-23T11:25:05.306Z,25.20
2018-04-23T11:27:33.543Z,25.30
2018-04-23T11:30:03.330Z,25.20
2018-04-23T11:32:31.587Z,25.40
2018-04-23T11:34:59.783Z,25.60
2018-04-23T11:37:29.558Z,25.60
2018-04-23T11:39:57.796Z,25.60
2018-04-23T11:42:26.019Z,25.60
2018-04-23T11:47:24.127Z,25.50
2018-04-23T11:49:52.351Z,25.50
2018-04-23T11:54:50.462Z,25.60
2018-04-23T11:57:18.691Z,25.70
2018-04-23T11:59:47.736Z,25.70
2018-04-23T12:02:16.731Z,25.60
2018-04-23T12:04:44.947Z,25.60
2018-04-23T12:07:14.979Z,25.50
2018-04-23T12:09:43.975Z,25.60
2018-04-23T12:12:13.375Z,25.70
2018-04-23T12:14:42.406Z,25.80
2018-04-23T12:17:11.394Z,25.80
2018-04-23T12:19:39.623Z,26.00
2018-04-23T12:22:07.883Z,26.10
2018-04-23T12:24:36.498Z,26.20
2018-04-23T12:27:04.727Z,26.30
2018-04-23T12:29:32.991Z,26.40
2018-04-23T12:32:02.726Z,26.20
2018-04-23T12:34:30.955Z,26.10
2018-04-23T12:36:59.231Z,26.00
2018-04-23T12:39:28.599Z,26.00
2018-04-23T12:41:56.828Z,26.00
2018-04-23T12:44:25.094Z,26.10
2018-04-23T12:46:53.325Z,26.10
2018-04-23T12:49:22.688Z,26.00
2018-04-23T12:51:51.720Z,26.20
2018-04-23T12:54:19.943Z,26.20
2018-04-23T12:56:48.171Z,26.40
2018-04-23T12:59:17.187Z,26.30
2018-04-23T13:01:45.415Z,26.20
2018-04-23T13:04:13.679Z,26.10
2018-04-23T13:06:41.907Z,26.00
2018-04-23T13:09:10.132Z,25.80
2018-04-23T13:11:39.917Z,25.70
2018-04-23T13:14:09.339Z,25.50
2018-04-23T13:16:38.731Z,25.40
2018-04-23T13:19:06.976Z,25.20
2018-04-23T13:21:35.207Z,25.10
2018-04-23T13:24:04.580Z,24.80
2018-04-23T13:26:32.846Z,24.70
2018-04-23T13:29:01.079Z,24.60
2018-04-23T13:31:29.346Z,24.60
2018-04-23T13:33:57.560Z,24.50
2018-04-23T13:36:26.919Z,24.40
2018-04-23T13:38:55.151Z,24.20
2018-04-23T13:41:23.574Z,24.00
2018-04-23T13:43:51.787Z,23.90
2018-04-23T13:46:20.409Z,23.80
2018-04-23T13:48:49.875Z,23.70
2018-04-23T13:51:18.090Z,23.70
2018-04-23T13:53:46.316Z,23.70
2018-04-23T13:56:14.621Z,23.60
2018-04-23T14:01:12.283Z,23.50
2018-04-23T14:03:40.551Z,23.50
2018-04-23T14:06:10.295Z,23.30
2018-04-23T14:08:38.933Z,23.20
2018-04-23T14:11:07.207Z,23.10
2018-04-23T14:13:36.577Z,23.10
2018-04-23T14:16:04.803Z,23.10
2018-04-23T14:18:33.063Z,23.10
2018-04-23T14:21:01.311Z,23.00
2018-04-23T14:23:29.552Z,23.00
2018-04-23T14:28:28.075Z,23.00
2018-04-23T14:30:56.317Z,23.00
2018-04-23T14:33:24.583Z,22.90
2018-04-23T14:35:53.603Z,22.90
2018-04-23T14:38:21.826Z,22.90
2018-04-23T14:40:50.104Z,22.90
2018-04-23T14:45:48.943Z,22.90
2018-04-23T14:48:18.357Z,22.80
2018-04-23T14:50:46.595Z,22.70
2018-04-23T14:53:16.339Z,22.70
2018-04-23T14:55:45.374Z,22.50
2018-04-23T14:58:13.615Z,22.50
2018-04-23T15:00:41.851Z,22.40
2018-04-23T15:06:11.342Z,22.30
2018-04-23T15:08:41.087Z,22.20
2018-04-23T15:11:09.320Z,22.20
2018-04-23T15:13:37.606Z,22.20
2018-04-23T15:16:05.839Z,22.10
2018-04-23T15:18:34.079Z,22.10
2018-04-23T15:21:08.224Z,22.10
2018-04-23T15:26:05.939Z,22.20
2018-04-23T15:28:34.994Z,22.30
2018-04-23T15:31:03.995Z,22.40
2018-04-23T15:33:32.240Z,22.40
2018-04-23T15:36:00.544Z,22.40
2018-04-23T15:38:28.759Z,22.30
2018-04-23T15:40:56.991Z,22.30
2018-04-23T15:43:26.786Z,22.20
2018-04-23T15:45:55.023Z,22.10
2018-04-23T15:48:24.772Z,22.00
2018-04-23T15:50:53.051Z,21.90
2018-04-23T15:53:21.287Z,21.80
2018-04-23T15:55:49.927Z,21.70
2018-04-23T15:58:18.244Z,21.50
2018-04-23T16:00:47.951Z,21.40
2018-04-23T16:03:16.189Z,21.30
2018-04-23T16:08:13.915Z,21.10
2018-04-23T16:10:42.155Z,21.00
2018-04-23T16:13:10.419Z,21.00
2018-04-23T16:15:38.655Z,20.90
2018-04-23T16:18:06.935Z,20.90
2018-04-23T16:20:35.171Z,20.90
2018-04-23T16:23:03.417Z,20.90
2018-04-23T16:25:31.694Z,20.90
2018-04-23T16:28:00.705Z,20.80
2018-04-23T16:30:28.963Z,20.90
2018-04-23T16:32:57.231Z,20.80
2018-04-23T16:35:25.472Z,20.80
2018-04-23T16:37:53.772Z,20.80
2018-04-23T16:40:22.007Z,20.90
2018-04-23T16:42:51.380Z,20.80
2018-04-23T16:45:19.664Z,20.80
2018-04-23T16:50:17.771Z,20.70
2018-04-23T16:52:46.046Z,20.60
2018-04-23T16:55:14.283Z,20.60
2018-04-23T16:57:42.537Z,20.50
2018-04-23T17:02:42.228Z,20.40
2018-04-23T17:05:10.469Z,20.40
2018-04-23T17:07:38.752Z,20.30
2018-04-23T17:10:08.500Z,20.30
2018-04-23T17:12:36.743Z,20.20
2018-04-23T17:15:05.053Z,20.10
2018-04-23T17:17:33.291Z,20.10
2018-04-23T17:20:01.523Z,20.00
2018-04-23T17:22:30.196Z,19.90
2018-04-23T17:24:59.204Z,19.90
2018-04-23T17:27:27.443Z,19.80
2018-04-23T17:29:55.720Z,19.80
2018-04-23T17:32:23.959Z,19.70
2018-04-23T17:34:52.194Z,19.70
2018-04-23T17:37:21.991Z,19.60
2018-04-23T17:39:50.218Z,19.60
2018-04-23T17:42:18.463Z,19.60
2018-04-23T17:44:48.262Z,19.50
2018-04-23T17:47:16.507Z,19.50
2018-04-23T17:49:44.753Z,19.40
2018-04-23T17:54:43.267Z,19.40
2018-04-23T17:57:12.644Z,19.40
2018-04-23T17:59:40.912Z,19.30
2018-04-23T18:02:09.147Z,19.20
2018-04-23T18:04:38.168Z,19.20
2018-04-23T18:07:07.203Z,19.10
2018-04-23T18:09:35.479Z,19.10
2018-04-23T18:14:33.571Z,18.90
2018-04-23T18:17:01.812Z,18.90
2018-04-23T18:19:30.443Z,18.80
2018-04-23T18:21:58.771Z,18.70
2018-04-23T18:24:27.780Z,18.70
2018-04-23T18:26:56.788Z,18.60
2018-04-23T18:29:25.072Z,18.50
2018-04-23T18:31:54.107Z,18.40
2018-04-23T18:34:22.353Z,18.30
2018-04-23T18:36:51.419Z,18.30
2018-04-23T18:41:49.127Z,18.10
2018-04-23T18:44:17.804Z,18.00
2018-04-23T18:46:46.800Z,17.90
2018-04-23T18:49:15.044Z,17.90
2018-04-23T18:51:43.316Z,17.80
2018-04-23T18:54:11.547Z,17.80
2018-04-23T18:56:39.779Z,17.70
2018-04-23T18:59:09.574Z,17.70
2018-04-23T19:01:37.807Z,17.60
2018-04-23T19:06:36.067Z,17.50
2018-04-23T19:09:05.841Z,17.50
2018-04-23T19:14:06.216Z,17.40
2018-04-23T19:16:35.215Z,17.30
2018-04-23T19:19:04.588Z,17.20
2018-04-23T19:21:33.170Z,17.20
2018-04-23T19:24:04.839Z,17.10
2018-04-23T19:26:34.632Z,17.00
2018-04-23T19:29:02.870Z,17.00
2018-04-23T19:31:31.903Z,16.90
2018-04-23T19:34:01.989Z,16.90
2018-04-23T19:36:30.222Z,16.80
2018-04-23T19:41:27.986Z,16.70
2018-04-23T19:43:56.227Z,16.70
2018-04-23T19:46:24.546Z,16.70
2018-04-23T19:51:22.258Z,16.60
2018-04-23T19:53:50.495Z,16.50
2018-04-23T19:56:18.786Z,16.50
2018-04-23T19:58:47.026Z,16.40
2018-04-23T20:01:15.258Z,16.40
2018-04-23T20:03:43.543Z,16.40
2018-04-23T20:06:12.538Z,16.30
2018-04-23T20:08:40.775Z,16.20
2018-04-23T20:11:09.836Z,16.20
2018-04-23T20:13:38.839Z,16.20
2018-04-23T20:16:07.079Z,16.10
2018-04-23T20:18:35.371Z,16.10
2018-04-23T20:21:03.607Z,16.10
2018-04-23T20:26:01.349Z,16.00
2018-04-23T20:28:30.352Z,16.00
2018-04-23T20:30:58.582Z,16.00
2018-04-23T20:33:27.234Z,16.00
2018-04-23T20:35:55.875Z,15.90
2018-04-23T20:38:24.876Z,15.90
2018-04-23T20:40:53.139Z,15.80
2018-04-23T20:43:22.144Z,15.90
2018-04-23T20:45:50.428Z,15.80
2018-04-23T20:48:18.659Z,15.80
2018-04-23T20:53:16.803Z,15.80
2018-04-23T20:55:45.041Z,15.70
2018-04-23T20:58:13.284Z,15.80
2018-04-23T21:00:43.503Z,15.70
2018-04-23T21:03:13.253Z,15.70
2018-04-23T21:05:41.499Z,15.70
2018-04-23T21:08:11.272Z,15.60
2018-04-23T21:10:40.272Z,15.60
2018-04-23T21:13:09.670Z,15.50
2018-04-23T21:15:37.931Z,15.50
2018-04-23T21:18:06.171Z,15.40
2018-04-23T21:20:34.447Z,15.40
2018-04-23T21:23:02.711Z,15.30
2018-04-23T21:25:30.951Z,15.30
2018-04-23T21:28:00.378Z,15.30
2018-04-23T21:30:28.608Z,15.30
2018-04-23T21:32:56.842Z,15.20
2018-04-23T21:35:25.158Z,15.20
2018-04-23T21:37:53.400Z,15.20
2018-04-23T21:40:21.636Z,15.20
2018-04-23T21:42:51.047Z,15.20
2018-04-23T21:45:20.051Z,15.20
2018-04-23T21:47:49.060Z,15.10
2018-04-23T21:50:17.343Z,15.10
2018-04-23T21:55:16.179Z,15.00
2018-04-23T21:57:44.443Z,15.00
2018-04-23T22:00:13.927Z,15.00
2018-04-23T22:05:11.689Z,14.90
2018-04-23T22:07:39.924Z,14.90
2018-04-23T22:10:08.164Z,14.90
2018-04-23T22:12:36.427Z,14.90
2018-04-23T22:15:04.659Z,14.80
2018-04-23T22:17:32.940Z,14.80
2018-04-23T22:20:02.679Z,14.80
2018-04-23T22:22:31.692Z,14.70
2018-04-23T22:24:59.963Z,14.80
2018-04-23T22:27:29.340Z,14.70
2018-04-23T22:29:57.578Z,14.70
2018-04-23T22:32:26.486Z,14.70
2018-04-23T22:34:55.130Z,14.70
2018-04-23T22:37:23.382Z,14.70
2018-04-23T22:39:52.836Z,14.80
2018-04-23T22:44:50.530Z,14.80
2018-04-23T22:47:18.795Z,14.80
2018-04-23T22:49:47.039Z,14.80
2018-04-23T22:54:46.295Z,14.90
2018-04-23T22:57:14.539Z,14.90
2018-04-23T22:59:42.806Z,14.90
2018-04-23T23:04:40.512Z,14.90
2018-04-23T23:07:08.782Z,14.90
2018-04-23T23:09:37.016Z,14.90
2018-04-23T23:12:05.244Z,14.90
2018-04-23T23:14:33.506Z,14.90
2018-04-23T23:17:01.731Z,14.90
2018-04-23T23:19:31.154Z,14.90
2018-04-23T23:21:59.382Z,14.90
2018-04-23T23:24:28.386Z,14.80
2018-04-23T23:26:56.911Z,14.80
2018-04-23T23:29:25.537Z,14.80
2018-04-23T23:31:53.763Z,14.80
2018-04-23T23:34:22.038Z,14.80
2018-04-23T23:36:51.052Z,14.70
2018-04-23T23:39:20.215Z,14.70
2018-04-23T23:41:48.439Z,14.70
2018-04-23T23:44:16.667Z,14.70
2018-04-23T23:46:44.938Z,14.70
2018-04-23T23:49:13.174Z,14.70
2018-04-23T23:51:41.450Z,14.70
2018-04-23T23:54:09.674Z,14.60
2018-04-23T23:56:38.663Z,14.60
2018-04-23T23:59:07.683Z,14.60
